Time;durP1;ratioP1;P1;durP2;ratioP2;P2;SDS_P1;SDS_P2;PMS_P1;PMS_P2;Temp;Humidity;BMP_temperature;BMP_pressure;BME280_temperature;BME280_humidity;BME280_pressure;Samples;Min_cycle;Max_cycle;Signal;HPM_P1;HPM_P2
2022/12/07 00:08:21;;;;;;;2.38;0.30;;;-1.90;99.90;;;;;;20223813;23;20119;-56
2022/12/07 00:18:24;;;;;;;0.95;0.30;;;-2.00;99.90;;;;;;20222391;23;20092;-59
2022/12/07 00:28:27;;;;;;;0.52;0.25;;;-2.10;99.90;;;;;;20173495;23;20460;-59
2022/12/07 00:38:32;;;;;;;0.60;0.30;;;-2.20;99.90;;;;;;20263882;23;20146;-60
2022/12/07 00:48:35;;;;;;;1.00;0.40;;;-2.30;99.90;;;;;;20194934;23;20049;-58
2022/12/07 00:58:37;;;;;;;0.93;0.50;;;-2.30;99.90;;;;;;20242619;24;2054776;-60
2022/12/07 01:08:40;;;;;;;0.68;0.38;;;-2.20;99.90;;;;;;20294177;24;20094;-61
2022/12/07 01:19:00;;;;;;;0.80;0.30;;;-2.30;99.90;;;;;;20223665;23;20129;-62
2022/12/07 01:29:04;;;;;;;1.05;0.30;;;-2.20;99.90;;;;;;20251395;24;20416;-60
2022/12/07 01:39:09;;;;;;;1.25;0.40;;;-2.00;99.90;;;;;;20314617;24;20393;-61
2022/12/07 01:49:35;;;;;;;0.70;0.20;;;-2.00;99.90;;;;;;20317459;24;20109;-59
2022/12/07 01:59:38;;;;;;;0.28;0.20;;;-2.00;99.90;;;;;;20292916;23;20413;-56
2022/12/07 02:09:41;;;;;;;0.30;0.20;;;-2.00;99.90;;;;;;20238491;23;20053;-59
2022/12/07 02:20:02;;;;;;;0.88;0.30;;;-1.90;99.90;;;;;;20236261;23;20046;-58
2022/12/07 02:30:20;;;;;;;0.40;0.25;;;-2.00;99.90;;;;;;20187005;23;20058;-54
2022/12/07 02:41:02;;;;;;;1.42;0.30;;;-2.00;99.90;;;;;;20577967;23;20054;-48
2022/12/07 02:51:04;;;;;;;0.63;0.30;;;-1.80;99.90;;;;;;20221439;23;20090;-59
2022/12/07 03:01:26;;;;;;;1.05;0.20;;;-1.80;99.90;;;;;;20205206;23;20072;-59
2022/12/07 03:11:53;;;;;;;0.45;0.25;;;-1.70;99.90;;;;;;20158216;23;20086;-61
2022/12/07 03:22:03;;;;;;;0.40;0.20;;;-1.80;99.90;;;;;;20179311;23;20473;-60
2022/12/07 03:32:47;;;;;;;0.80;0.30;;;-2.20;99.90;;;;;;20209049;23;20122;-58
2022/12/07 03:42:51;;;;;;;0.28;0.10;;;-2.20;99.90;;;;;;20127589;23;20090;-60
2022/12/07 03:53:00;;;;;;;0.60;0.20;;;-2.30;99.90;;;;;;20236881;23;20065;-60
2022/12/07 04:03:03;;;;;;;0.60;0.20;;;-2.30;99.90;;;;;;20229570;23;20062;-65
2022/12/07 04:13:05;;;;;;;0.90;0.20;;;-2.30;99.90;;;;;;20208642;23;20049;-57
2022/12/07 04:23:07;;;;;;;0.43;0.20;;;-2.40;99.90;;;;;;20236399;23;20058;-55
2022/12/07 04:33:26;;;;;;;0.20;0.10;;;-2.50;99.90;;;;;;20179769;23;20061;-55
2022/12/07 04:43:28;;;;;;;0.52;0.20;;;-2.40;99.90;;;;;;20220195;23;20061;-58
2022/12/07 04:53:55;;;;;;;0.35;0.10;;;-2.50;99.90;;;;;;20176694;23;20102;-60
2022/12/07 05:03:58;;;;;;;0.17;0.10;;;-2.60;99.90;;;;;;20255969;23;20061;-58
2022/12/07 05:14:06;;;;;;;0.38;0.10;;;-2.70;99.90;;;;;;20222167;23;20508;-59
2022/12/07 05:24:11;;;;;;;0.15;0.10;;;-2.60;99.90;;;;;;20222545;23;20065;-58
2022/12/07 05:34:14;;;;;;;0.28;0.10;;;-2.60;99.90;;;;;;20240097;23;20062;-59
2022/12/07 05:44:32;;;;;;;0.20;0.03;;;-2.60;99.90;;;;;;20212296;23;20091;-59
2022/12/07 05:54:34;;;;;;;0.35;0.10;;;-2.40;99.90;;;;;;20209809;23;20061;-58
2022/12/07 06:04:39;;;;;;;0.40;0.20;;;-2.40;99.90;;;;;;20231777;23;20046;-59
2022/12/07 06:14:42;;;;;;;0.20;0.10;;;-2.40;99.90;;;;;;20179816;23;20057;-58
2022/12/07 06:24:44;;;;;;;0.40;0.17;;;-2.40;99.90;;;;;;20269338;23;20049;-60
2022/12/07 06:34:48;;;;;;;0.13;0.00;;;-2.40;99.90;;;;;;20232714;23;20045;-65
2022/12/07 06:44:50;;;;;;;0.57;0.10;;;-2.50;99.90;;;;;;20192349;23;20505;-59
2022/12/07 06:54:52;;;;;;;0.40;0.10;;;-2.50;99.90;;;;;;20274892;23;20050;-60
2022/12/07 07:04:55;;;;;;;0.43;0.08;;;-2.40;99.90;;;;;;20231408;23;20109;-60
2022/12/07 07:14:57;;;;;;;0.90;0.10;;;-2.30;99.90;;;;;;20206995;23;20053;-57
2022/12/07 07:25:00;;;;;;;0.52;0.20;;;-2.10;99.90;;;;;;20243761;23;20046;-61
2022/12/07 07:35:03;;;;;;;0.20;0.10;;;-2.00;99.90;;;;;;20176465;23;20058;-62
2022/12/07 07:45:06;;;;;;;0.45;0.10;;;-1.70;99.90;;;;;;20258286;23;20062;-60
2022/12/07 07:55:10;;;;;;;0.47;0.10;;;-1.10;99.90;;;;;;20244835;23;20527;-60
2022/12/07 08:05:13;;;;;;;0.28;0.10;;;-0.50;99.90;;;;;;20226593;23;20054;-59
2022/12/07 08:15:15;;;;;;;1.27;0.10;;;0.30;99.90;;;;;;20229144;23;20076;-57
2022/12/07 08:35:38;;;;;;;0.43;0.20;;;1.90;99.90;;;;;;20184450;23;20061;-59
2022/12/07 08:45:41;;;;;;;0.35;0.10;;;2.70;99.90;;;;;;20229727;23;20049;-58
2022/12/07 08:55:46;;;;;;;0.17;0.10;;;3.40;99.90;;;;;;20269653;23;20420;-59
2022/12/07 09:05:48;;;;;;;0.20;0.10;;;3.80;99.30;;;;;;20251286;23;20061;-58
2022/12/07 09:15:50;;;;;;;0.60;0.10;;;4.40;98.50;;;;;;20219837;23;20062;-61
2022/12/07 09:25:53;;;;;;;0.28;0.10;;;4.80;99.00;;;;;;20183583;23;20517;-61
2022/12/07 09:35:55;;;;;;;0.17;0.15;;;5.30;98.60;;;;;;20226480;23;20053;-59
2022/12/07 09:45:58;;;;;;;0.40;0.10;;;5.60;97.00;;;;;;20194258;23;1174775;-61
2022/12/07 09:56:01;;;;;;;0.60;0.20;;;5.90;97.30;;;;;;20244712;23;20046;-59
2022/12/07 10:06:05;;;;;;;1.10;0.13;;;6.20;97.90;;;;;;20227495;23;20074;-59
2022/12/07 10:26:29;;;;;;;0.20;0.10;;;6.60;96.00;;;;;;20164650;23;20121;-61
2022/12/07 10:36:37;;;;;;;0.13;0.10;;;6.60;96.30;;;;;;20235997;23;20533;-60
2022/12/07 10:46:49;;;;;;;0.93;0.30;;;6.70;95.30;;;;;;20228092;23;20541;-58
2022/12/07 10:57:05;;;;;;;1.65;0.10;;;6.90;96.30;;;;;;20238426;23;20066;-59
2022/12/07 11:07:42;;;;;;;0.40;0.17;;;7.10;94.70;;;;;;20235085;23;20049;-63
2022/12/07 11:18:02;;;;;;;0.13;0.13;;;7.30;95.50;;;;;;20218417;23;20057;-60
2022/12/07 11:28:16;;;;;;;0.40;0.10;;;7.30;94.90;;;;;;20236442;23;20045;-62
2022/12/07 11:38:41;;;;;;;0.80;0.47;;;7.20;94.50;;;;;;20159344;24;20061;-60
2022/12/07 11:48:50;;;;;;;1.17;0.68;;;7.20;96.00;;;;;;20175750;23;20196;-59
2022/12/07 11:59:43;;;;;;;0.93;0.68;;;7.20;96.20;;;;;;20207141;23;20090;-60
2022/12/07 12:10:14;;;;;;;2.78;1.10;;;7.20;96.50;;;;;;20084655;24;20050;-62
2022/12/07 12:20:23;;;;;;;1.90;1.00;;;7.30;98.10;;;;;;20217853;23;20070;-61
2022/12/07 12:30:25;;;;;;;1.60;1.05;;;7.20;96.80;;;;;;20071429;23;20505;-60
2022/12/07 12:40:31;;;;;;;2.40;1.48;;;6.90;97.50;;;;;;20232958;23;20054;-62
2022/12/07 12:50:35;;;;;;;2.63;1.48;;;6.80;98.60;;;;;;19993857;24;20111;-61
2022/12/07 13:00:37;;;;;;;1.90;1.30;;;6.80;98.80;;;;;;20057128;23;20118;-61
2022/12/07 13:11:14;;;;;;;2.53;1.38;;;6.30;99.20;;;;;;20180970;23;20053;-64
2022/12/07 13:21:26;;;;;;;1.65;1.30;;;5.60;99.90;;;;;;20148949;23;20057;-61
2022/12/07 13:31:33;;;;;;;2.33;1.48;;;4.90;99.90;;;;;;20190218;23;20058;-61
2022/12/07 13:41:35;;;;;;;3.95;1.60;;;4.30;99.90;;;;;;20169871;23;20060;-61
2022/12/07 13:51:38;;;;;;;2.35;1.60;;;4.10;99.90;;;;;;20241107;23;20057;-60
2022/12/07 14:01:40;;;;;;;3.13;2.00;;;3.90;99.90;;;;;;20346268;23;20521;-52
2022/12/07 14:11:44;;;;;;;2.58;1.63;;;3.50;99.90;;;;;;20340116;23;20054;-61
2022/12/07 14:21:47;;;;;;;3.08;2.08;;;3.20;99.90;;;;;;20250724;23;20801;-58
2022/12/07 14:32:27;;;;;;;3.38;1.90;;;3.00;99.90;;;;;;20206077;23;20061;-60
2022/12/07 14:42:31;;;;;;;;;;;2.70;99.90;;;;;;20221165;23;20062;-61
2022/12/07 14:52:33;;;;;;;2.80;1.60;;;2.40;99.90;;;;;;20206394;23;19983;-60
2022/12/07 15:02:36;;;;;;;2.85;1.60;;;2.00;99.90;;;;;;20241648;23;20061;-61
2022/12/07 15:12:38;;;;;;;2.78;1.13;;;1.30;99.90;;;;;;20257899;23;20412;-59
2022/12/07 15:22:41;;;;;;;1.25;0.60;;;0.60;99.90;;;;;;20237191;23;20468;-59
2022/12/07 15:32:43;;;;;;;2.50;1.17;;;0.20;99.90;;;;;;20243049;23;20530;-61
2022/12/07 15:42:46;;;;;;;3.15;1.90;;;0.00;99.90;;;;;;20171697;23;20066;-56
2022/12/07 15:52:49;;;;;;;1.70;0.80;;;-0.40;99.90;;;;;;20237278;23;20122;-59
2022/12/07 16:02:51;;;;;;;1.80;1.05;;;-0.80;99.90;;;;;;20211145;23;20061;-61
2022/12/07 16:12:53;;;;;;;16.77;6.45;;;-1.00;99.90;;;;;;20218548;23;20098;-59
2022/12/07 16:22:56;;;;;;;3.78;1.95;;;-1.00;99.90;;;;;;20211216;23;20045;-57
2022/12/07 16:32:59;;;;;;;4.82;2.80;;;-1.10;99.90;;;;;;20172852;23;20061;-61
2022/12/07 16:43:01;;;;;;;1.20;0.55;;;-1.20;99.90;;;;;;20225231;23;20602;-59
2022/12/07 16:53:03;;;;;;;1.58;0.40;;;-1.10;99.90;;;;;;20221722;23;20053;-60
2022/12/07 17:03:06;;;;;;;0.60;0.30;;;-1.10;99.90;;;;;;20232331;23;20082;-59
2022/12/07 17:23:32;;;;;;;2.15;0.30;;;-1.00;99.90;;;;;;20253136;23;20506;-58
2022/12/07 17:33:38;;;;;;;1.17;0.30;;;-1.30;99.90;;;;;;20158516;23;20062;-59
2022/12/07 17:43:41;;;;;;;0.55;0.20;;;-1.40;99.90;;;;;;20299289;23;20057;-60
2022/12/07 17:53:43;;;;;;;0.80;0.30;;;-1.40;99.90;;;;;;20231354;23;20424;-59
2022/12/07 18:03:45;;;;;;;0.90;0.30;;;-1.50;99.90;;;;;;20231362;23;20489;-60
2022/12/07 18:13:49;;;;;;;0.80;0.35;;;-1.40;99.90;;;;;;20262475;23;20053;-61
2022/12/07 18:24:10;;;;;;;2.10;0.40;;;-1.50;99.90;;;;;;20213956;23;20073;-61
2022/12/07 18:34:16;;;;;;;1.77;0.80;;;-1.60;99.90;;;;;;20154636;23;20095;-51
2022/12/07 18:44:18;;;;;;;2.47;1.27;;;-1.60;99.90;;;;;;20230136;23;20091;-58
2022/12/07 18:54:21;;;;;;;2.58;1.60;;;-1.60;99.90;;;;;;20285875;23;20141;-61
2022/12/07 19:04:23;;;;;;;2.53;1.60;;;-1.60;99.90;;;;;;20226620;23;20054;-60
2022/12/07 19:14:32;;;;;;;5.88;2.67;;;-1.60;99.90;;;;;;20234898;23;20061;-59
2022/12/07 19:35:16;;;;;;;4.37;2.60;;;-1.80;99.90;;;;;;21055566;22;20417;-60
2022/12/07 19:45:19;;;;;;;2.42;1.58;;;-1.90;99.90;;;;;;21136341;22;20056;-60
2022/12/07 19:55:21;;;;;;;3.58;2.13;;;-2.00;99.90;;;;;;21140263;22;20102;-59
2022/12/07 20:05:23;;;;;;;3.38;1.67;;;-2.00;99.90;;;;;;21140203;22;20386;-61
2022/12/07 20:15:26;;;;;;;4.30;2.08;;;-2.10;99.90;;;;;;21188667;22;20045;-60
2022/12/07 20:25:29;;;;;;;2.70;1.52;;;-2.20;99.90;;;;;;21153772;22;20102;-59
2022/12/07 20:35:31;;;;;;;2.75;1.20;;;-2.30;99.90;;;;;;21117022;22;20072;-57
2022/12/07 20:45:34;;;;;;;1.63;0.88;;;-2.30;99.90;;;;;;21076425;22;20102;-59
2022/12/07 20:55:37;;;;;;;1.48;0.88;;;-2.30;99.90;;;;;;21079742;22;20189;-58
2022/12/07 21:05:40;;;;;;;2.03;1.00;;;-2.30;99.90;;;;;;21044841;22;20053;-60
2022/12/07 21:15:42;;;;;;;2.88;0.98;;;-2.40;99.90;;;;;;21112893;22;20098;-60
2022/12/07 21:25:45;;;;;;;1.10;0.60;;;-2.40;99.90;;;;;;20977965;22;20057;-59
2022/12/07 21:35:48;;;;;;;1.33;0.63;;;-2.30;99.90;;;;;;21123708;22;20049;-57
2022/12/07 21:45:54;;;;;;;1.75;0.60;;;-2.30;99.90;;;;;;21038496;22;20265;-57
2022/12/07 21:55:56;;;;;;;1.20;0.50;;;-2.10;99.90;;;;;;21016499;22;20057;-60
2022/12/07 22:06:00;;;;;;;2.30;1.20;;;-2.20;99.90;;;;;;21088786;22;20056;-60
2022/12/07 22:16:35;;;;;;;3.38;1.90;;;-2.30;99.90;;;;;;21029875;22;20103;-59
2022/12/07 22:26:45;;;;;;;3.63;2.10;;;-2.40;99.90;;;;;;21058411;22;20083;31
2022/12/07 22:36:48;;;;;;;4.05;1.90;;;-2.50;99.90;;;;;;21007449;22;20525;-61
2022/12/07 22:46:50;;;;;;;4.45;2.30;;;-2.60;99.90;;;;;;21084741;22;20065;-59
2022/12/07 22:56:52;;;;;;;2.75;1.30;;;-2.60;99.90;;;;;;21103283;22;20053;-55
2022/12/07 23:06:58;;;;;;;2.35;1.13;;;-2.70;99.90;;;;;;21075955;22;20049;-59
2022/12/07 23:17:01;;;;;;;2.80;1.10;;;-2.80;99.90;;;;;;21144076;22;20079;-59
2022/12/07 23:27:04;;;;;;;2.40;1.10;;;-2.80;99.90;;;;;;20998434;22;20062;-59
2022/12/07 23:37:21;;;;;;;1.67;0.88;;;-2.70;99.90;;;;;;21062735;22;20544;-58
2022/12/07 23:47:23;;;;;;;1.08;0.60;;;-2.60;99.90;;;;;;21119768;22;20082;-54
2022/12/07 23:57:26;;;;;;;0.93;0.50;;;-2.70;99.90;;;;;;21076240;22;20061;-59
